createdAt,value
2019-04-03T00:01:43.285Z,44.05
2019-04-03T00:06:49.302Z,43.27
2019-04-03T00:11:56.295Z,130.07
2019-04-03T00:22:11.164Z,482.97
2019-04-03T00:27:17.504Z,891.27
2019-04-03T00:32:36.076Z,1309.45
2019-04-03T00:37:42.538Z,890.20
2019-04-03T00:42:48.823Z,668.43
2019-04-03T00:47:56.122Z,463.83
2019-04-03T00:58:08.779Z,210.37
2019-04-03T01:03:14.685Z,83.37
2019-04-03T01:08:20.708Z,57.67
2019-04-03T01:13:26.694Z,46.23
2019-04-03T01:18:34.349Z,40.03
2019-04-03T01:23:40.373Z,39.37
2019-04-03T01:28:46.342Z,34.17
2019-04-03T01:33:52.317Z,50.23
2019-04-03T01:38:58.295Z,53.10
2019-04-03T01:44:04.301Z,40.77
2019-04-03T01:49:10.327Z,37.60
2019-04-03T01:54:15.966Z,33.83
2019-04-03T01:59:21.864Z,33.67
2019-04-03T02:04:27.916Z,30.13
2019-04-03T02:14:40.397Z,30.10
2019-04-03T02:19:46.567Z,31.30
2019-04-03T02:24:52.753Z,30.03
2019-04-03T02:29:58.725Z,28.17
2019-04-03T02:35:07.752Z,29.70
2019-04-03T02:40:12.451Z,31.10
2019-04-03T02:45:22.758Z,28.13
2019-04-03T02:50:26.497Z,29.40
2019-04-03T02:55:32.763Z,29.17
2019-04-03T03:00:38.641Z,27.60
2019-04-03T03:05:44.607Z,29.20
2019-04-03T03:10:51.637Z,27.90
2019-04-03T03:15:58.606Z,28.27
2019-04-03T03:21:04.770Z,28.13
2019-04-03T03:26:10.636Z,27.30
2019-04-03T03:31:17.275Z,27.80
2019-04-03T03:36:26.484Z,27.50
2019-04-03T03:41:32.842Z,26.60
2019-04-03T03:46:38.724Z,27.73
2019-04-03T03:56:50.670Z,26.70
2019-04-03T04:07:04.528Z,26.30
2019-04-03T04:12:10.316Z,25.37
2019-04-03T04:17:18.099Z,26.97
2019-04-03T04:22:26.840Z,26.93
2019-04-03T04:27:33.581Z,30.40
2019-04-03T04:32:39.431Z,25.80
2019-04-03T04:37:45.507Z,26.67
2019-04-03T04:42:51.672Z,25.03
2019-04-03T04:47:57.533Z,26.73
2019-04-03T04:53:03.712Z,27.80
2019-04-03T04:58:11.550Z,25.80
2019-04-03T05:03:17.830Z,27.67
2019-04-03T05:08:23.754Z,26.67
2019-04-03T05:13:30.851Z,26.50
2019-04-03T05:23:42.718Z,27.70
2019-04-03T05:28:54.573Z,27.50
2019-04-03T05:33:56.511Z,26.60
2019-04-03T05:39:03.459Z,25.93
2019-04-03T05:44:10.012Z,27.83
2019-04-03T05:54:23.873Z,26.50
2019-04-03T05:59:32.691Z,27.60
2019-04-03T06:04:38.742Z,25.33
2019-04-03T06:09:44.995Z,28.03
2019-04-03T06:14:51.010Z,27.10
2019-04-03T06:19:56.847Z,27.63
2019-04-03T06:25:02.655Z,28.57
2019-04-03T06:30:08.563Z,24.40
2019-04-03T06:40:36.439Z,27.17
2019-04-03T06:45:43.871Z,24.07
2019-04-03T06:50:50.485Z,25.37
2019-04-03T06:55:56.433Z,27.40
2019-04-03T07:01:02.479Z,25.47
2019-04-03T07:06:08.981Z,24.53
2019-04-03T07:11:23.165Z,27.77
2019-04-03T07:16:22.642Z,27.50
2019-04-03T07:21:28.684Z,24.80
2019-04-03T07:26:36.324Z,30.17
2019-04-03T07:31:47.655Z,312.63
2019-04-03T07:36:54.111Z,472.10
2019-04-03T07:47:08.914Z,600.90
2019-04-03T07:57:22.392Z,194.13
2019-04-03T08:02:28.355Z,100.60
2019-04-03T08:07:34.325Z,62.50
2019-04-03T08:12:40.537Z,45.20
2019-04-03T08:17:47.873Z,34.83
2019-04-03T08:27:59.847Z,35.83
2019-04-03T08:33:15.139Z,31.73
2019-04-03T08:38:14.215Z,33.00
2019-04-03T08:43:20.323Z,29.45
2019-04-03T08:48:26.291Z,28.33
2019-04-03T08:53:32.547Z,29.80
2019-04-03T08:58:38.544Z,28.17
2019-04-03T09:03:45.854Z,27.47
2019-04-03T09:08:52.550Z,24.67
2019-04-03T09:13:58.690Z,26.90
2019-04-03T09:19:04.936Z,26.13
2019-04-03T09:24:11.550Z,27.03
2019-04-03T09:29:17.650Z,24.17
2019-04-03T09:34:23.632Z,27.03
2019-04-03T09:39:29.585Z,28.10
2019-04-03T09:44:35.655Z,27.27
2019-04-03T09:49:43.751Z,24.30
2019-04-03T09:54:49.624Z,23.33
2019-04-03T09:59:55.835Z,23.27
2019-04-03T10:10:07.877Z,24.17
2019-04-03T10:15:13.964Z,23.93
2019-04-03T10:20:20.963Z,23.40
2019-04-03T10:25:27.316Z,25.13
2019-04-03T10:30:32.946Z,23.80
2019-04-03T10:35:39.775Z,22.80
2019-04-03T10:40:46.023Z,25.83
2019-04-03T10:45:52.004Z,23.80
2019-04-03T10:50:57.972Z,25.75
2019-04-03T10:56:04.339Z,23.20
2019-04-03T11:01:10.340Z,25.23
2019-04-03T11:06:16.372Z,24.40
2019-04-03T11:11:22.729Z,23.12
2019-04-03T11:21:34.529Z,26.73
2019-04-03T11:26:40.753Z,26.07
2019-04-03T11:31:46.677Z,29.03
2019-04-03T11:41:58.824Z,29.10
2019-04-03T11:47:04.699Z,27.20
2019-04-03T11:52:10.838Z,29.10
2019-04-03T12:02:24.066Z,25.13
2019-04-03T12:07:29.991Z,25.30
2019-04-03T12:12:36.051Z,27.73
2019-04-03T12:17:42.183Z,28.35
2019-04-03T12:22:47.734Z,28.17
2019-04-03T12:27:53.689Z,27.17
2019-04-03T12:32:59.553Z,29.17
2019-04-03T12:43:31.874Z,26.20
2019-04-03T12:48:37.964Z,23.67
2019-04-03T12:58:50.733Z,26.90
2019-04-03T13:03:57.337Z,25.63
2019-04-03T13:09:03.379Z,22.10
2019-04-03T13:14:13.534Z,23.07
2019-04-03T13:19:18.085Z,22.00
2019-04-03T13:24:25.028Z,22.10
2019-04-03T13:29:31.740Z,22.07
2019-04-03T13:34:37.631Z,18.40
2019-04-03T13:39:43.976Z,23.87
2019-04-03T13:44:50.027Z,21.00
2019-04-03T13:49:57.848Z,22.77
2019-04-03T13:55:04.265Z,105.47
2019-04-03T14:00:22.319Z,84.80
2019-04-03T14:05:18.827Z,66.63
2019-04-03T14:10:26.969Z,106.52
2019-04-03T14:15:33.685Z,134.43
2019-04-03T14:25:46.644Z,118.43
2019-04-03T14:30:52.780Z,88.00
2019-04-03T14:35:58.416Z,51.67
2019-04-03T14:41:08.875Z,48.63
2019-04-03T14:46:17.431Z,81.20
2019-04-03T14:51:27.710Z,61.42
2019-04-03T14:56:36.073Z,62.77
2019-04-03T15:07:00.503Z,91.23
2019-04-03T15:11:58.148Z,73.50
2019-04-03T15:17:04.829Z,123.43
2019-04-03T15:27:18.059Z,65.80
2019-04-03T15:32:24.012Z,51.13
2019-04-03T15:37:29.985Z,43.37
2019-04-03T15:42:38.478Z,41.50
2019-04-03T15:47:47.263Z,48.10
2019-04-03T15:52:53.467Z,59.23
2019-04-03T15:58:00.062Z,48.87
2019-04-03T16:03:07.116Z,62.53
2019-04-03T16:08:15.168Z,154.73
2019-04-03T16:13:22.138Z,332.63
2019-04-03T16:18:28.371Z,138.83
2019-04-03T16:23:36.833Z,411.53
2019-04-03T16:28:41.970Z,343.80
2019-04-03T16:33:48.133Z,482.07
2019-04-03T16:44:00.120Z,489.83
2019-04-03T16:54:14.303Z,587.63
2019-04-03T16:59:20.640Z,548.78
2019-04-03T17:09:37.525Z,136.03
2019-04-03T17:14:42.277Z,80.53
2019-04-03T17:19:50.945Z,55.70
2019-04-03T17:24:56.510Z,37.45
2019-04-03T17:30:02.925Z,34.43
2019-04-03T17:40:14.821Z,27.20
2019-04-03T17:45:20.677Z,27.13
2019-04-03T17:50:27.840Z,27.50
2019-04-03T17:55:34.292Z,26.85
2019-04-03T18:00:40.343Z,25.47
2019-04-03T18:05:46.284Z,24.03
2019-04-03T18:10:52.275Z,25.70
2019-04-03T18:15:58.890Z,24.70
2019-04-03T18:21:05.478Z,23.30
2019-04-03T18:26:11.518Z,25.10
2019-04-03T18:31:17.707Z,22.57
2019-04-03T18:36:23.664Z,20.57
2019-04-03T18:47:08.275Z,21.30
2019-04-03T18:52:14.288Z,22.70
2019-04-03T18:57:20.316Z,21.13
2019-04-03T19:02:26.287Z,21.77
2019-04-03T19:07:32.281Z,20.70
2019-04-03T19:12:38.343Z,21.03
2019-04-03T19:17:44.323Z,20.50
2019-04-03T19:23:01.988Z,20.00
2019-04-03T19:27:59.420Z,19.50
2019-04-03T19:38:13.221Z,20.17
2019-04-03T19:43:19.030Z,20.43
2019-04-03T19:48:25.748Z,21.10
2019-04-03T19:53:32.074Z,20.87
2019-04-03T19:58:38.031Z,19.70
2019-04-03T20:03:44.770Z,18.70
2019-04-03T20:08:50.667Z,18.20
2019-04-03T20:13:56.637Z,19.80
2019-04-03T20:19:02.615Z,18.87
2019-04-03T20:24:08.669Z,19.63
2019-04-03T20:29:14.656Z,20.07
2019-04-03T20:34:20.726Z,19.23
2019-04-03T20:39:28.724Z,19.40
2019-04-03T20:44:34.360Z,19.40
2019-04-03T20:49:40.407Z,157.50
2019-04-03T20:54:46.560Z,557.73
2019-04-03T21:00:01.657Z,328.30
2019-04-03T21:05:00.762Z,456.70
2019-04-03T21:10:06.729Z,553.70
2019-04-03T21:20:21.898Z,245.00
2019-04-03T21:25:28.084Z,648.80
2019-04-03T21:35:39.852Z,589.73
2019-04-03T21:40:46.955Z,761.20
2019-04-03T21:45:53.536Z,776.57
2019-04-03T21:51:00.630Z,1045.17
2019-04-03T21:56:06.710Z,1095.20
2019-04-03T22:01:14.830Z,1154.23
2019-04-03T22:06:21.377Z,1153.93
2019-04-03T22:11:27.477Z,900.17
2019-04-03T22:16:33.757Z,881.23
2019-04-03T22:21:40.216Z,917.27
2019-04-03T22:31:54.457Z,1046.47
2019-04-03T22:37:03.838Z,1170.47
2019-04-03T22:42:08.437Z,971.55
2019-04-03T22:47:14.714Z,1094.60
2019-04-03T22:52:20.778Z,840.67
2019-04-03T23:02:32.935Z,811.40
2019-04-03T23:07:39.088Z,812.07
2019-04-03T23:17:50.840Z,952.03
2019-04-03T23:22:57.083Z,800.47
2019-04-03T23:33:09.773Z,769.50
2019-04-03T23:38:15.851Z,495.03
2019-04-03T23:48:27.901Z,313.52
2019-04-03T23:53:35.182Z,493.57
2019-04-03T23:58:41.980Z,362.47
